Prairie City, South Dakota
Current Conditions -  °F | °C
As of 10:53 PM on Tuesday 21 Oct 2014 (Local Time) from KHEI Reporting Station
Clear Clear  
Wind Chill: 60°   Ceiling: Unl
Heat Index: 60°   Visibility: 10mi
Dew Point: 44°   Wind: 7mph
Humidity: 55%   Direction: 210°SSW
Pressure: 29.67"   Gusts: NA
Location:  45.53°N, 102.81°W
Report Text: KHEI 220453Z AUTO 21006KT 10SM CLR 16/07 A2967 RMK AO2 SLP037 T01560067
Loading
Personal Weather Stations






























Interactive Weather Map
Tropical Storm Tracking
New forecast layout! Learn more

10-Day Weather Forecast

Advertisements
Track Severe Weather on mobile